createdAt,value
2018-11-02T00:00:09.890Z,17.10
2018-11-02T00:02:40.066Z,17.10
2018-11-02T00:05:11.166Z,17.10
2018-11-02T00:07:41.573Z,17.10
2018-11-02T00:10:11.858Z,17.20
2018-11-02T00:12:42.190Z,17.20
2018-11-02T00:15:12.479Z,17.20
2018-11-02T00:17:42.738Z,17.20
2018-11-02T00:20:13.039Z,17.20
2018-11-02T00:22:43.302Z,17.20
2018-11-02T00:25:13.592Z,17.20
2018-11-02T00:27:43.868Z,17.20
2018-11-02T00:30:14.131Z,17.30
2018-11-02T00:32:44.423Z,17.30
2018-11-02T00:35:14.706Z,17.30
2018-11-02T00:37:44.979Z,17.30
2018-11-02T00:40:15.250Z,17.30
2018-11-02T00:42:45.525Z,17.30
2018-11-02T00:45:15.816Z,17.30
2018-11-02T00:47:46.067Z,17.30
2018-11-02T00:50:16.353Z,17.30
2018-11-02T00:52:46.626Z,17.30
2018-11-02T00:55:17.311Z,17.30
2018-11-02T00:57:47.583Z,17.30
2018-11-02T01:00:17.991Z,17.30
2018-11-02T01:02:48.253Z,17.30
2018-11-02T01:05:18.534Z,17.30
2018-11-02T01:07:48.831Z,17.30
2018-11-02T01:10:19.085Z,17.30
2018-11-02T01:12:49.390Z,17.30
2018-11-02T01:15:19.637Z,17.30
2018-11-02T01:17:49.957Z,17.20
2018-11-02T01:20:20.554Z,17.20
2018-11-02T01:22:50.847Z,17.20
2018-11-02T01:25:21.101Z,17.20
2018-11-02T01:27:51.393Z,17.20
2018-11-02T01:30:21.647Z,17.20
2018-11-02T01:32:51.961Z,17.20
2018-11-02T01:35:22.227Z,17.20
2018-11-02T01:37:52.502Z,17.20
2018-11-02T01:40:22.780Z,17.20
2018-11-02T01:42:53.073Z,17.20
2018-11-02T01:45:23.329Z,17.10
2018-11-02T01:47:53.617Z,17.10
2018-11-02T01:50:23.881Z,17.10
2018-11-02T01:52:54.171Z,17.10
2018-11-02T01:55:24.427Z,17.10
2018-11-02T01:57:54.705Z,17.10
2018-11-02T02:00:24.978Z,17.10
2018-11-02T02:02:55.250Z,17.10
2018-11-02T02:05:25.526Z,17.10
2018-11-02T02:07:55.781Z,17.10
2018-11-02T02:10:26.034Z,17.00
2018-11-02T02:12:56.284Z,17.00
2018-11-02T02:15:26.526Z,17.00
2018-11-02T02:17:56.795Z,17.00
2018-11-02T02:20:27.318Z,17.00
2018-11-02T02:22:57.581Z,17.10
2018-11-02T02:25:27.842Z,17.00
2018-11-02T02:27:58.085Z,17.00
2018-11-02T02:30:28.314Z,17.00
2018-11-02T02:32:58.621Z,17.00
2018-11-02T02:35:28.894Z,17.00
2018-11-02T02:37:59.185Z,17.00
2018-11-02T02:40:29.455Z,17.00
2018-11-02T02:42:59.733Z,17.10
2018-11-02T02:45:30.018Z,17.10
2018-11-02T02:48:00.343Z,17.00
2018-11-02T02:50:30.599Z,17.00
2018-11-02T02:53:00.890Z,17.00
2018-11-02T02:55:31.179Z,17.00
2018-11-02T02:58:01.470Z,17.00
2018-11-02T03:00:31.751Z,17.00
2018-11-02T03:03:02.119Z,17.00
2018-11-02T03:05:32.402Z,17.00
2018-11-02T03:08:02.695Z,16.90
2018-11-02T03:10:33.009Z,16.90
2018-11-02T03:13:03.350Z,16.90
2018-11-02T03:15:33.609Z,16.90
2018-11-02T03:18:03.898Z,16.90
2018-11-02T03:20:34.166Z,16.90
2018-11-02T03:23:04.686Z,16.90
2018-11-02T03:25:34.937Z,16.90
2018-11-02T03:28:05.239Z,16.90
2018-11-02T03:30:35.583Z,16.80
2018-11-02T03:33:05.807Z,16.80
2018-11-02T03:35:36.107Z,16.80
2018-11-02T03:38:06.415Z,16.80
2018-11-02T03:40:36.735Z,16.80
2018-11-02T03:43:06.959Z,16.80
2018-11-02T03:45:37.247Z,16.80
2018-11-02T03:48:07.574Z,16.80
2018-11-02T03:50:38.170Z,16.80
2018-11-02T03:53:08.640Z,16.80
2018-11-02T03:55:38.881Z,16.80
2018-11-02T03:58:09.114Z,16.80
2018-11-02T04:00:41.134Z,16.80
2018-11-02T04:03:11.524Z,16.80
2018-11-02T04:05:41.764Z,16.80
2018-11-02T04:08:12.079Z,16.80
2018-11-02T04:10:42.342Z,16.80
2018-11-02T04:13:12.575Z,16.80
2018-11-02T04:15:42.823Z,16.80
2018-11-02T04:18:13.046Z,16.80
2018-11-02T04:20:43.342Z,16.80
2018-11-02T04:23:13.584Z,16.80
2018-11-02T04:25:43.839Z,16.70
2018-11-02T04:28:14.071Z,16.70
2018-11-02T04:30:44.393Z,16.70
2018-11-02T04:33:14.636Z,16.70
2018-11-02T04:35:44.932Z,16.70
2018-11-02T04:38:15.199Z,16.70
2018-11-02T04:40:45.473Z,16.60
2018-11-02T04:43:15.822Z,16.60
2018-11-02T04:45:46.204Z,16.60
2018-11-02T04:48:16.467Z,16.70
2018-11-02T04:50:46.814Z,16.70
2018-11-02T04:53:17.118Z,16.70
2018-11-02T04:55:47.433Z,16.70
2018-11-02T04:58:17.708Z,16.70
2018-11-02T05:00:47.993Z,16.60
2018-11-02T05:03:18.297Z,16.60
2018-11-02T05:05:48.581Z,16.60
2018-11-02T05:08:20.890Z,16.60
2018-11-02T05:10:56.981Z,16.60
2018-11-02T05:13:27.494Z,16.70
2018-11-02T05:15:58.095Z,16.70
2018-11-02T05:18:30.187Z,16.70
2018-11-02T05:21:00.569Z,16.70
2018-11-02T05:23:30.812Z,16.70
2018-11-02T05:26:02.189Z,16.70
2018-11-02T05:28:32.770Z,16.60
2018-11-02T05:31:03.227Z,16.60
2018-11-02T05:33:33.594Z,16.60
2018-11-02T05:36:03.957Z,16.60
2018-11-02T05:38:34.197Z,16.60
2018-11-02T05:41:04.562Z,16.60
2018-11-02T05:43:34.819Z,16.60
2018-11-02T05:46:05.501Z,16.60
2018-11-02T05:48:35.846Z,16.50
2018-11-02T05:51:06.128Z,16.50
2018-11-02T05:53:36.394Z,16.50
2018-11-02T05:56:06.782Z,16.50
2018-11-02T05:58:37.018Z,16.50
2018-11-02T06:01:07.294Z,16.50
2018-11-02T06:03:37.535Z,16.40
2018-11-02T06:06:07.793Z,16.40
2018-11-02T06:08:38.057Z,16.40
2018-11-02T06:11:08.619Z,16.40
2018-11-02T06:13:38.887Z,16.40
2018-11-02T06:16:09.138Z,16.40
2018-11-02T06:18:39.382Z,16.40
2018-11-02T06:21:09.691Z,16.40
2018-11-02T06:23:39.939Z,16.40
2018-11-02T06:26:10.182Z,16.40
2018-11-02T06:28:40.490Z,16.30
2018-11-02T06:31:10.817Z,16.30
2018-11-02T06:33:41.091Z,16.30
2018-11-02T06:36:11.411Z,16.30
2018-11-02T06:38:41.757Z,16.30
2018-11-02T06:41:12.001Z,16.30
2018-11-02T06:43:42.296Z,16.30
2018-11-02T06:46:12.505Z,16.30
2018-11-02T06:48:42.879Z,16.30
2018-11-02T06:51:13.126Z,16.20
2018-11-02T06:53:43.384Z,16.20
2018-11-02T06:56:13.653Z,16.20
2018-11-02T06:58:43.887Z,16.20
2018-11-02T07:01:14.427Z,16.20
2018-11-02T07:03:44.722Z,16.10
2018-11-02T07:06:14.990Z,16.10
2018-11-02T07:08:45.249Z,16.10
2018-11-02T07:11:16.155Z,16.10
2018-11-02T07:13:47.654Z,16.10
2018-11-02T07:16:17.941Z,16.10
2018-11-02T07:18:48.145Z,16.10
2018-11-02T07:21:18.388Z,16.00
2018-11-02T07:23:48.703Z,16.10
2018-11-02T07:26:18.877Z,16.10
2018-11-02T07:28:49.267Z,16.00
2018-11-02T07:31:20.013Z,16.00
2018-11-02T07:33:50.632Z,16.00
2018-11-02T07:36:20.978Z,16.00
2018-11-02T07:38:51.267Z,16.00
2018-11-02T07:41:21.710Z,16.00
2018-11-02T07:43:52.026Z,16.00
2018-11-02T07:46:22.305Z,16.00
2018-11-02T07:48:52.650Z,16.00
2018-11-02T07:51:22.898Z,16.00
2018-11-02T07:53:53.350Z,16.10
2018-11-02T07:56:23.669Z,16.00
2018-11-02T07:58:53.945Z,16.00
2018-11-02T08:01:24.206Z,16.10
2018-11-02T08:03:54.501Z,16.00
2018-11-02T08:06:24.767Z,16.10
2018-11-02T08:08:55.143Z,16.10
2018-11-02T08:11:25.522Z,16.10
2018-11-02T08:13:55.740Z,16.10
2018-11-02T08:16:26.029Z,16.10
2018-11-02T08:18:56.385Z,16.10
2018-11-02T08:21:26.626Z,16.20
2018-11-02T08:23:56.933Z,16.20
2018-11-02T08:26:27.206Z,16.30
2018-11-02T08:28:57.482Z,16.30
2018-11-02T08:31:27.819Z,16.30
2018-11-02T08:33:58.114Z,16.40
2018-11-02T08:36:28.399Z,16.50
2018-11-02T08:38:58.687Z,16.50
2018-11-02T08:41:28.954Z,16.50
2018-11-02T08:43:59.238Z,16.60
2018-11-02T08:46:29.599Z,16.70
2018-11-02T08:48:59.785Z,16.80
2018-11-02T08:51:30.051Z,16.80
2018-11-02T08:54:00.383Z,16.90
2018-11-02T08:56:30.634Z,16.90
2018-11-02T08:59:00.994Z,17.00
2018-11-02T09:01:31.203Z,17.10
2018-11-02T09:04:01.489Z,17.10
2018-11-02T09:06:31.762Z,17.20
2018-11-02T09:09:02.066Z,17.30
2018-11-02T09:11:32.326Z,17.40
2018-11-02T09:14:02.642Z,17.40
2018-11-02T09:16:32.926Z,17.50
2018-11-02T09:19:03.219Z,17.50
2018-11-02T09:21:33.573Z,17.60
2018-11-02T09:24:03.806Z,17.60
2018-11-02T09:26:34.037Z,17.70
2018-11-02T09:29:04.308Z,17.70
2018-11-02T09:31:34.545Z,17.80
2018-11-02T09:34:04.799Z,17.80
2018-11-02T09:36:35.210Z,17.90
2018-11-02T09:39:08.504Z,17.90
2018-11-02T09:41:38.766Z,18.00
2018-11-02T09:44:09.002Z,18.00
2018-11-02T09:46:39.258Z,18.10
2018-11-02T09:49:09.502Z,18.20
2018-11-02T09:51:39.863Z,18.20
2018-11-02T09:54:09.987Z,18.30
2018-11-02T09:56:40.263Z,18.40
2018-11-02T09:59:10.505Z,18.50
2018-11-02T10:01:40.771Z,18.50
2018-11-02T10:04:11.078Z,18.60
2018-11-02T10:06:41.271Z,18.70
2018-11-02T10:09:13.065Z,18.70
2018-11-02T10:11:43.189Z,18.80
2018-11-02T10:14:13.426Z,18.90
2018-11-02T10:16:43.698Z,18.90
2018-11-02T10:19:13.933Z,19.00
2018-11-02T10:21:44.241Z,19.10
2018-11-02T10:24:14.475Z,19.10
2018-11-02T10:26:44.734Z,19.20
2018-11-02T10:29:21.685Z,19.20
2018-11-02T10:31:52.010Z,19.20
2018-11-02T10:34:22.242Z,19.20
2018-11-02T10:36:52.511Z,19.30
2018-11-02T10:39:22.821Z,19.30
2018-11-02T10:41:57.691Z,19.40
2018-11-02T10:44:32.789Z,19.40
2018-11-02T10:47:04.857Z,19.40
2018-11-02T10:49:35.202Z,19.40
2018-11-02T10:52:05.731Z,19.40
2018-11-02T10:54:36.281Z,19.40
2018-11-02T10:57:06.836Z,19.40
2018-11-02T10:59:37.123Z,19.40
2018-11-02T11:02:08.358Z,19.40
2018-11-02T11:04:38.604Z,19.40
2018-11-02T11:07:08.886Z,19.40
2018-11-02T11:09:39.137Z,19.40
2018-11-02T11:12:09.502Z,19.40
2018-11-02T11:14:39.623Z,19.40
2018-11-02T11:17:09.875Z,19.40
2018-11-02T11:19:40.150Z,19.40
2018-11-02T11:22:10.397Z,19.40
2018-11-02T11:24:40.645Z,19.40
2018-11-02T11:27:10.911Z,19.40
2018-11-02T11:29:41.142Z,19.40
2018-11-02T11:32:11.464Z,19.40
2018-11-02T11:34:41.729Z,19.40
2018-11-02T11:37:12.016Z,19.40
2018-11-02T11:39:42.388Z,19.30
2018-11-02T11:42:12.637Z,19.30
2018-11-02T11:44:42.917Z,19.30
2018-11-02T11:47:13.203Z,19.30
2018-11-02T11:49:43.475Z,19.30
2018-11-02T11:52:13.755Z,19.30
2018-11-02T11:54:44.020Z,19.30
2018-11-02T11:57:14.333Z,19.30
2018-11-02T11:59:51.151Z,19.20
2018-11-02T12:02:21.605Z,19.20
2018-11-02T12:04:51.870Z,19.20
2018-11-02T12:07:22.138Z,19.20
2018-11-02T12:09:52.400Z,19.20
2018-11-02T12:12:22.684Z,19.20
2018-11-02T12:14:52.959Z,19.20
2018-11-02T12:17:23.258Z,19.20
2018-11-02T12:19:53.522Z,19.20
2018-11-02T12:22:23.839Z,19.20
2018-11-02T12:24:54.102Z,19.20
2018-11-02T12:27:24.409Z,19.20
2018-11-02T12:29:54.686Z,19.20
2018-11-02T12:32:24.993Z,19.20
2018-11-02T12:34:55.274Z,19.20
2018-11-02T12:37:25.591Z,19.20
2018-11-02T12:39:55.858Z,19.20
2018-11-02T12:42:26.161Z,19.20
2018-11-02T12:44:56.990Z,19.20
2018-11-02T12:47:28.031Z,19.20
2018-11-02T12:49:59.005Z,19.20
2018-11-02T12:52:29.851Z,19.20
2018-11-02T12:55:01.951Z,19.20
2018-11-02T12:57:32.860Z,19.20
2018-11-02T13:00:03.810Z,19.20
2018-11-02T13:02:34.902Z,19.20
2018-11-02T13:05:05.972Z,19.20
2018-11-02T13:07:37.033Z,19.20
2018-11-02T13:10:09.643Z,19.20
2018-11-02T13:12:40.542Z,19.20
2018-11-02T13:15:13.737Z,19.20
2018-11-02T13:17:46.481Z,19.20
2018-11-02T13:20:18.070Z,19.20
2018-11-02T13:22:50.173Z,19.20
2018-11-02T13:25:21.969Z,19.20
2018-11-02T13:27:53.280Z,19.20
2018-11-02T13:30:25.414Z,19.20
2018-11-02T13:32:56.095Z,19.20
2018-11-02T13:35:27.094Z,19.20
2018-11-02T13:37:57.974Z,19.20
2018-11-02T13:40:29.238Z,19.20
2018-11-02T13:43:00.048Z,19.20
2018-11-02T13:45:30.914Z,19.20
2018-11-02T13:48:01.775Z,19.20
2018-11-02T13:50:32.910Z,19.20
2018-11-02T13:53:04.573Z,19.20
2018-11-02T13:55:35.286Z,19.20
2018-11-02T13:58:06.149Z,19.20
2018-11-02T14:00:36.976Z,19.10
2018-11-02T14:03:07.870Z,19.10
2018-11-02T14:05:38.842Z,19.10
2018-11-02T14:08:09.841Z,19.10
2018-11-02T14:10:40.607Z,19.10
2018-11-02T14:13:11.542Z,19.10
2018-11-02T14:15:49.234Z,19.10
2018-11-02T14:18:20.204Z,19.10
2018-11-02T14:20:52.027Z,19.10
2018-11-02T14:23:22.930Z,19.00
2018-11-02T14:25:53.587Z,19.00
2018-11-02T14:28:24.462Z,19.00
2018-11-02T14:30:55.461Z,19.00
2018-11-02T14:33:26.169Z,19.00
2018-11-02T14:35:56.903Z,19.00
2018-11-02T14:38:30.954Z,19.00
2018-11-02T14:41:02.009Z,19.00
2018-11-02T14:43:32.643Z,19.00
2018-11-02T14:46:03.599Z,19.00
2018-11-02T14:48:35.118Z,19.00
2018-11-02T14:51:06.493Z,19.00
2018-11-02T14:53:43.246Z,19.00
2018-11-02T14:56:14.082Z,19.00
2018-11-02T14:58:45.080Z,19.00
2018-11-02T15:01:16.077Z,18.90
2018-11-02T15:03:47.795Z,18.90
2018-11-02T15:06:18.595Z,18.90
2018-11-02T15:08:48.870Z,18.90
2018-11-02T15:11:19.221Z,18.90
2018-11-02T15:13:49.466Z,18.90
2018-11-02T15:16:19.769Z,18.80
2018-11-02T15:18:50.047Z,18.80
2018-11-02T15:21:20.326Z,18.80
2018-11-02T15:23:50.666Z,18.80
2018-11-02T15:26:21.022Z,18.80
2018-11-02T15:28:51.245Z,18.70
2018-11-02T15:31:21.549Z,18.70
2018-11-02T15:33:51.854Z,18.70
2018-11-02T15:36:22.148Z,18.60
2018-11-02T15:38:52.425Z,18.60
2018-11-02T15:41:22.703Z,18.60
2018-11-02T15:43:53.069Z,18.60
2018-11-02T15:46:23.489Z,18.50
2018-11-02T15:48:53.761Z,18.50
2018-11-02T15:51:24.058Z,18.50
2018-11-02T15:53:54.333Z,18.50
2018-11-02T15:56:24.618Z,18.50
2018-11-02T15:58:54.903Z,18.40
2018-11-02T16:01:25.489Z,18.40
2018-11-02T16:03:55.755Z,18.40
2018-11-02T16:06:26.049Z,18.40
2018-11-02T16:08:56.367Z,18.40
2018-11-02T16:11:26.750Z,18.40
2018-11-02T16:13:57.031Z,18.30
2018-11-02T16:16:27.317Z,18.30
2018-11-02T16:18:57.587Z,18.30
2018-11-02T16:21:28.198Z,18.30
2018-11-02T16:23:58.461Z,18.30
2018-11-02T16:26:29.661Z,18.30
2018-11-02T16:28:59.934Z,18.20
2018-11-02T16:31:30.263Z,18.20
2018-11-02T16:34:00.679Z,18.20
2018-11-02T16:36:30.929Z,18.20
2018-11-02T16:39:01.200Z,18.20
2018-11-02T16:41:31.582Z,18.20
2018-11-02T16:44:01.862Z,18.20
2018-11-02T16:46:32.089Z,18.20
2018-11-02T16:49:02.322Z,18.20
2018-11-02T16:51:32.627Z,18.20
2018-11-02T16:54:02.880Z,18.20
2018-11-02T16:56:33.507Z,18.20
2018-11-02T16:59:03.718Z,18.20
2018-11-02T17:01:34.068Z,18.20
2018-11-02T17:04:04.242Z,18.10
2018-11-02T17:06:34.504Z,18.10
2018-11-02T17:09:06.745Z,18.10
2018-11-02T17:11:37.057Z,18.10
2018-11-02T17:14:07.279Z,18.10
2018-11-02T17:16:37.531Z,18.10
2018-11-02T17:19:07.850Z,18.10
2018-11-02T17:21:38.166Z,18.10
2018-11-02T17:24:08.407Z,18.10
2018-11-02T17:26:38.670Z,18.10
2018-11-02T17:29:08.949Z,18.10
2018-11-02T17:31:39.330Z,18.00
2018-11-02T17:34:09.773Z,18.00
2018-11-02T17:36:40.220Z,18.00
2018-11-02T17:39:11.755Z,18.00
2018-11-02T17:41:42.161Z,18.00
2018-11-02T17:44:12.598Z,18.00
2018-11-02T17:46:42.866Z,18.00
2018-11-02T17:49:13.163Z,18.00
2018-11-02T17:51:43.445Z,17.90
2018-11-02T17:54:13.953Z,17.90
2018-11-02T17:56:44.251Z,17.90
2018-11-02T17:59:14.585Z,17.90
2018-11-02T18:01:44.836Z,17.90
2018-11-02T18:04:15.145Z,17.90
2018-11-02T18:06:45.499Z,17.90
2018-11-02T18:09:15.780Z,17.80
2018-11-02T18:11:46.081Z,17.80
2018-11-02T18:14:16.392Z,17.80
2018-11-02T18:16:46.615Z,17.90
2018-11-02T18:19:16.907Z,17.90
2018-11-02T18:21:47.228Z,17.90
2018-11-02T18:24:17.567Z,17.90
2018-11-02T18:26:47.819Z,17.80
2018-11-02T18:29:18.181Z,17.90
2018-11-02T18:31:48.442Z,17.80
2018-11-02T18:34:18.699Z,17.80
2018-11-02T18:36:48.946Z,17.80
2018-11-02T18:39:19.209Z,17.80
2018-11-02T18:41:49.530Z,17.80
2018-11-02T18:44:19.921Z,17.80
2018-11-02T18:46:50.179Z,17.80
2018-11-02T18:49:20.437Z,17.80
2018-11-02T18:51:50.717Z,17.80
2018-11-02T18:54:20.963Z,17.80
2018-11-02T18:56:51.267Z,17.80
2018-11-02T18:59:21.561Z,17.70
2018-11-02T19:01:51.853Z,17.70
2018-11-02T19:04:22.149Z,17.70
2018-11-02T19:06:52.409Z,17.70
2018-11-02T19:09:23.258Z,17.70
2018-11-02T19:11:53.499Z,17.60
2018-11-02T19:14:23.754Z,17.60
2018-11-02T19:16:54.036Z,17.60
2018-11-02T19:19:24.311Z,17.60
2018-11-02T19:21:54.587Z,17.60
2018-11-02T19:24:24.857Z,17.60
2018-11-02T19:26:55.277Z,17.60
2018-11-02T19:29:25.522Z,17.50
2018-11-02T19:31:55.823Z,17.50
2018-11-02T19:34:26.150Z,17.50
2018-11-02T19:36:56.359Z,17.50
2018-11-02T19:39:26.626Z,17.50
2018-11-02T19:41:56.915Z,17.50
2018-11-02T19:44:27.308Z,17.40
2018-11-02T19:46:57.506Z,17.40
2018-11-02T19:49:27.934Z,17.40
2018-11-02T19:51:58.208Z,17.40
2018-11-02T19:54:29.482Z,17.40
2018-11-02T19:56:59.767Z,17.30
2018-11-02T19:59:30.186Z,17.30
2018-11-02T20:02:00.392Z,17.30
2018-11-02T20:04:30.687Z,17.30
2018-11-02T20:07:00.954Z,17.30
2018-11-02T20:09:31.243Z,17.30
2018-11-02T20:12:01.469Z,17.30
2018-11-02T20:14:31.734Z,17.30
2018-11-02T20:17:02.012Z,17.30
2018-11-02T20:19:32.283Z,17.30
2018-11-02T20:22:02.564Z,17.20
2018-11-02T20:24:32.814Z,17.30
2018-11-02T20:27:03.181Z,17.20
2018-11-02T20:29:33.444Z,17.20
2018-11-02T20:32:03.860Z,17.20
2018-11-02T20:34:34.092Z,17.20
2018-11-02T20:37:04.423Z,17.20
2018-11-02T20:39:34.753Z,17.20
2018-11-02T20:42:05.289Z,17.20
2018-11-02T20:44:35.581Z,17.20
2018-11-02T20:47:05.885Z,17.20
2018-11-02T20:49:36.190Z,17.20
2018-11-02T20:52:07.074Z,17.20
2018-11-02T20:54:37.338Z,17.20
2018-11-02T20:57:07.626Z,17.20
2018-11-02T20:59:37.898Z,17.10
2018-11-02T21:02:08.195Z,17.10
2018-11-02T21:04:38.462Z,17.20
2018-11-02T21:07:08.896Z,17.10
2018-11-02T21:09:39.186Z,17.20
2018-11-02T21:12:09.418Z,17.20
2018-11-02T21:14:39.863Z,17.10
2018-11-02T21:17:10.046Z,17.10
2018-11-02T21:19:40.265Z,17.10
2018-11-02T21:22:12.004Z,17.10
2018-11-02T21:24:42.170Z,17.10
2018-11-02T21:27:12.458Z,17.10
2018-11-02T21:29:42.729Z,17.10
2018-11-02T21:32:13.014Z,17.10
2018-11-02T21:34:43.251Z,17.10
2018-11-02T21:37:13.533Z,17.10
2018-11-02T21:39:43.771Z,17.20
2018-11-02T21:42:14.037Z,17.20
2018-11-02T21:44:44.272Z,17.20
2018-11-02T21:47:14.541Z,17.20
2018-11-02T21:49:44.787Z,17.20
2018-11-02T21:52:15.058Z,17.20
2018-11-02T21:54:45.332Z,17.10
2018-11-02T21:57:15.587Z,17.10
2018-11-02T21:59:45.916Z,17.10
2018-11-02T22:02:16.189Z,17.10
2018-11-02T22:04:46.425Z,17.10
2018-11-02T22:07:16.781Z,17.10
2018-11-02T22:09:47.083Z,17.10
2018-11-02T22:12:17.354Z,17.10
2018-11-02T22:14:47.585Z,17.10
2018-11-02T22:17:17.859Z,17.10
2018-11-02T22:19:48.100Z,17.10
2018-11-02T22:22:18.358Z,17.10
2018-11-02T22:24:48.668Z,17.10
2018-11-02T22:27:19.006Z,17.10
2018-11-02T22:29:49.198Z,17.10
2018-11-02T22:32:19.457Z,17.00
2018-11-02T22:34:49.722Z,17.00
2018-11-02T22:37:20.178Z,17.00
2018-11-02T22:39:50.455Z,17.00
2018-11-02T22:42:20.710Z,17.00
2018-11-02T22:44:50.970Z,17.00
2018-11-02T22:47:21.210Z,17.00
2018-11-02T22:49:51.493Z,17.00
2018-11-02T22:52:21.746Z,17.00
2018-11-02T22:54:52.036Z,17.00
2018-11-02T22:57:22.266Z,17.00
2018-11-02T22:59:52.526Z,17.00
2018-11-02T23:02:22.779Z,17.00
2018-11-02T23:04:53.074Z,17.00
2018-11-02T23:07:23.314Z,17.00
2018-11-02T23:09:53.572Z,17.00
2018-11-02T23:12:23.806Z,17.00
2018-11-02T23:14:54.078Z,17.00
2018-11-02T23:17:24.309Z,17.00
2018-11-02T23:19:54.574Z,17.00
2018-11-02T23:22:24.858Z,16.90
2018-11-02T23:24:55.441Z,16.90
2018-11-02T23:27:25.698Z,16.90
2018-11-02T23:29:56.007Z,16.90
2018-11-02T23:32:26.253Z,16.90
2018-11-02T23:34:56.523Z,16.90
2018-11-02T23:37:26.782Z,16.90
2018-11-02T23:39:57.047Z,16.90
2018-11-02T23:42:27.918Z,16.90
2018-11-02T23:44:58.242Z,16.90
2018-11-02T23:47:28.673Z,16.80
2018-11-02T23:49:58.931Z,16.80
2018-11-02T23:52:29.182Z,16.80
2018-11-02T23:54:59.436Z,16.80
2018-11-02T23:57:29.674Z,16.80
2018-11-02T23:59:59.933Z,16.80
